Relevés horaires Bouveret (Suisse)


Relevés horaires à Bouveret - Samedi 14 Avr. 2018
Heure UTC1 Température [°C] Vent [km/h] Hum. [%] Pres.4 [hPa] Visi. [Km] Nébu. [octa] Préc.5 [mm] Cond.
2m. Res. Ros. Dir.2 Vit. Moy. Raf.3
23:00 11.3 11.3 6.8 SSE 3.7 -- 7.4 74 1017.1(-0.6/3h) -- -- -- --
22:00 12.0 12.0 6.9 ONO 0.0 -- 3.7 71 1017.5(0.1/3h) -- -- -- --
21:00 12.8 12.8 6.7 S 1.9 -- 13.0 66 1017.4(0.4/3h) -- -- -- --
20:00 12.9 12.9 6.2 SSE 3.7 -- 5.6 64 1017.5(0.3/3h) -- -- -- --
19:00 12.8 12.8 6.9 NE 3.7 -- 13.0 67 1017.3(0.5/3h) -- -- -- --
18:00 14.8 14.2 5.1 O 11.1 -- 11.1 52 1016.7(-0.4/3h) -- -- -- --
17:00 12.8 12.8 6.2 NNO 1.9 -- 5.6 64 1017.2(-0.7/3h) -- -- -- --
16:00 13.5 13.5 3.3 NNO 3.7 -- 5.6 50 1016.7(-1.5/3h) -- -- -- --
15:00 13.2 13.2 2.2 O 5.6 -- 9.3 47 1017.3(-1.5/3h) -- -- -- --
14:00 12.1 12 4.9 ONO 5.6 -- 9.3 61 1018(-1.7/3h) -- -- -- --
13:00 12.5 12.4 6.0 N 5.6 -- 7.4 65 1018.4(-1.0/3h) -- -- -- --
12:00 10.7 10.7 7.1 NO 3.7 -- 16.7 78 1019.3(-0.6/3h) -- -- -- --
11:00 10.9 10.9 7.2 N 3.7 -- 16.7 78 1020(-0.1/3h) -- -- -- --
10:00 10.0 8.8 7.4 O 9.3 -- 11.1 84 1019.8(-0.3/3h) -- -- -- --
09:00 9.5 9 6.8 O 5.6 -- 9.3 83 1020.1(0.2/3h) -- -- -- --
08:00 9.5 8.6 5.6 ONO 7.4 -- 9.3 77 1020.4(0.9/3h) -- -- -- --
07:00 9.7 9.7 5.5 NE 1.9 -- 7.4 75 1020.2(1.3/3h) -- -- -- --
06:00 8.8 8.8 5.6 S 3.7 -- 16.7 80 1020.1(1.3/3h) -- -- -- --
05:00 8.3 8.3 5.0 SSE 1.9 -- 9.3 80 1019.6(1.1/3h) -- -- -- --
04:00 9.2 9.2 5.8 N 1.9 -- 9.3 79 1018.9(0.6/3h) -- -- -- --
03:00 9.3 9.3 5.4 ONO 0.0 -- 16.7 77 1018.6(0.8/3h) -- -- -- --
02:00 9.8 9.8 5.8 E 1.9 -- 9.3 76 1018.2(1.1/3h) -- -- -- --
01:00 10.0 9.6 6.4 N 5.6 -- 16.7 78 1018.2(1.6/3h) -- -- -- --
00:00 10.7 9.6 5.4 ONO 9.3 -- 22.2 70 1017.5(1.5/3h) -- -- -- --

1 Coordinated Universal Time. Actuellement il est 09:00 locale et 07:00 UTC.

2 Le vent souffle depuis la direction indiquée vers la direction oposée.

3 Les rafales max. sont disponible 40 min après l'heure du relevé.

4 Pour les stations d'altitude (plus de 600m) le géopotentiel du niveau le plus proche de la pression obligatoire est indiqué.

5 Les stations disposant d'un diffuseur peuvent indiquer "trace". Cela signifie que des précipitations ont touchés le sol mais que la quantité est inférieure à 0.1 mm.

Copyright

Les données affichées sur cette page sont la propriété exclusive de Météo Suisse.

Récapitulatif de la journée
Température [°C] Vent [km/h] Ensoleillement4 [h] Precipitations totale5 [mm] Pression [Hpa]
Min1 Max.2 Moy.3 Max. Min Max.
8.1 14.4 0 22.2 0 h 0 min 0 1016.7 1020.4

1 Température minimale relevée entre 18:00 UTC la veille et 18:00 UTC le jour donné.

2 Température maximale relevée entre 06:00 UTC le jour donné et 06:00 UTC le lendemain.

3 Vent moyen de la journée basé sur les relevés horaires.

4 Ensoleillement en heures relevé entre 06:00 UTC la veille et 06:00 UTC le jour donné.

5 Précipitations totales tombées entre 06:00 UTC la jour donné et 06:00 UTC le lendemain.

Graphiques horaires